Currently N/A°F in Perris, California, USA
N/A°F Alert
N/A°F / N/A°F
N/A
N/A
Sunday, February 25, 2024 1:09 PM PST

Perris, California Weather Summary
Last 36 Hours

Temperature Winds Hourly Humidity Dewpoint
Time Report Norm Report Norm Max Gusts Precip. Rpt. Norm Rpt. Norm Pressure
1Wed 08:08 AM  50.3°F  47°F  calm  1 mph  none  0.00"  80%  72%  44°F  38°F  29.97"
Wed 08:00 AM  50.0°F  46°F  calm  1 mph  none  0.00"  83%  73%  45°F  38°F  29.97"
3Wed 07:44 AM  45.8°F  45°F  calm  1 mph  none  ----  83%  73%  41°F  37°F  29.98"
Wed 07:00 AM  50.1°F  45°F  calm  1 mph  none  0.00"  80%  73%  44°F  36°F  29.97"
Wed 06:00 AM  49.0°F  45°F  calm  1 mph  4 mph  0.00"  80%  72%  43°F  36°F  29.96"
Wed 05:00 AM  51.0°F  46°F  calm  1 mph  none  0.00"  73%  71%  42°F  37°F  29.95"
Wed 04:00 AM  48.5°F  46°F  calm  1 mph  none  0.00"  82%  71%  43°F  37°F  29.97"
Wed 03:00 AM  48.6°F  47°F  calm  1 mph  none  0.00"  80%  70%  43°F  37°F  29.98"
Wed 02:00 AM  50.8°F  48°F  calm  1 mph  none  0.00"  76%  68%  43°F  38°F  29.99"
Wed 01:00 AM  51.3°F  49°F  calm  1 mph  none  0.00"  74%  66%  43°F  38°F  30.00"
2Wed 12:01 AM  53.4°F  50°F  calm  1 mph  none  ----  72%  64%  44°F  38°F  30.01"
Wed 12:00 AM  53.0°F  50°F  calm  1 mph  none  0.00"  72%  64%  44°F  38°F  30.01"
Tue 11:00 PM  56.5°F  52°F  calm  1 mph  none  0.00"  63%  62%  44°F  39°F  30.02"
Tue 10:00 PM  56.7°F  53°F  calm  2 mph  none  0.00"  62%  60%  43°F  39°F  30.01"
Tue 09:00 PM  60.2°F  54°F  calm  2 mph  none  0.00"  57%  57%  45°F  39°F  30.00"
Tue 08:00 PM  63.5°F  56°F  calm  2 mph  none  0.00"  51%  54%  44°F  39°F  29.99"
Tue 07:00 PM  65.9°F  57°F  calm  2 mph  5 mph  0.00"  47%  51%  44°F  38°F  29.98"
Tue 06:00 PM  68.1°F  59°F  calm  2 mph  none  0.00"  38%  48%  41°F  38°F  29.98"
Tue 05:00 PM  71.0°F  62°F  calm  3 mph  none  0.00"  31%  42%  38°F  38°F  29.95"
Tue 04:00 PM  76.6°F  64°F  calm  3 mph  4 mph  0.00"  22%  38%  33°F  37°F  29.96"
Tue 03:00 PM  76.7°F  65°F  calm  4 mph  none  0.00"  20%  36%  31°F  36°F  29.96"
Tue 02:00 PM  79.1°F  66°F  calm  3 mph  8 mph  0.00"  17%  36%  29°F  37°F  29.98"
Tue 01:00 PM  78.3°F  65°F  calm  3 mph  6 mph  0.00"  19%  37%  31°F  37°F  30.00"
Tue 12:00 PM  75.8°F  63°F  calm  3 mph  5 mph  0.21"  26%  40%  37°F  38°F  30.01"
Tue 11:24 AM  72.3°F  62°F  calm  3 mph  5 mph  1.10"  32%  44%  39°F  39°F  30.03"
Tue 10:00 AM  64.1°F  57°F  calm  2 mph  6 mph  0.00"  48%  56%  44°F  41°F  30.06"
Tue 09:00 AM  59.3°F  52°F  2 mph SE  2 mph  5 mph  0.00"  53%  66%  41°F  40°F  30.08"
Tue 08:00 AM  47.0°F  47°F  2 mph S  1 mph  none  0.00"  73%  73%  39°F  38°F  30.10"
Tue 07:00 AM  42.6°F  45°F  calm  1 mph  none  0.00"  80%  74%  37°F  37°F  30.09"
Tue 06:00 AM  43.9°F  45°F  calm  1 mph  none  0.00"  79%  72%  38°F  37°F  30.07"
Tue 05:00 AM  45.4°F  46°F  calm  1 mph  none  0.00"  75%  72%  38°F  37°F  30.05"
Tue 04:00 AM  44.5°F  46°F  calm  1 mph  3 mph  0.00"  74%  71%  36°F  37°F  30.05"
Tue 03:00 AM  47.0°F  47°F  calm  1 mph  none  0.00"  70%  70%  37°F  38°F  30.07"
Tue 02:00 AM  50.0°F  48°F  calm  1 mph  2 mph  0.00"  63%  68%  38°F  38°F  30.08"
Tue 01:00 AM  51.5°F  49°F  calm  1 mph  none  0.00"  62%  67%  38°F  38°F  30.08"
Tue 12:00 AM  55.6°F  50°F  calm  1 mph  none  0.00"  49%  65%  36°F  38°F  30.08"
Mon 11:00 PM  57.0°F  52°F  calm  2 mph  none  0.00"  49%  63%  37°F  39°F  30.09"
Mon 10:00 PM  59.2°F  53°F  calm  2 mph  none  0.00"  47%  60%  38°F  39°F  30.07"
Mon 09:00 PM  60.0°F  54°F  calm  2 mph  none  0.00"  41%  58%  36°F  39°F  30.06"

  1. Current weather data. No green row appears if the current weather data is also the high or low for the current day.
  2. High temperature for the current day.
  3. Low temperature for the current day.

The Perris, California weather pages are a service of WeatherCurrents. Perris is located in Southern California's Inland Empire, south of Riverside and north of Sun City, along the Interstate 215 freeway.
Copyright ©2024  WeatherCurrents. All rights reserved. - Submit questions and comments - Privacy Policy

This page automatically refreshes every 10 minutes.